sensor_id;sensor_type;location;lat;lon;timestamp;P1;durP1;ratioP1;P2;durP2;ratioP2
59474;SDS011;45288;51.136;16.928;2023-02-28T00:00:01;47.55;;;25.20;;
59474;SDS011;45288;51.136;16.928;2023-02-28T00:02:35;45.72;;;23.65;;
59474;SDS011;45288;51.136;16.928;2023-02-28T00:05:01;48.50;;;23.63;;
59474;SDS011;45288;51.136;16.928;2023-02-28T00:07:29;55.15;;;25.63;;
59474;SDS011;45288;51.136;16.928;2023-02-28T00:09:55;52.42;;;25.23;;
59474;SDS011;45288;51.136;16.928;2023-02-28T00:12:21;55.57;;;25.80;;
59474;SDS011;45288;51.136;16.928;2023-02-28T00:14:47;50.43;;;24.93;;
59474;SDS011;45288;51.136;16.928;2023-02-28T00:17:12;56.38;;;26.20;;
59474;SDS011;45288;51.136;16.928;2023-02-28T00:19:38;53.85;;;25.38;;
59474;SDS011;45288;51.136;16.928;2023-02-28T00:22:04;52.27;;;25.87;;
59474;SDS011;45288;51.136;16.928;2023-02-28T00:24:29;51.75;;;24.95;;
59474;SDS011;45288;51.136;16.928;2023-02-28T00:26:55;50.83;;;24.40;;
59474;SDS011;45288;51.136;16.928;2023-02-28T00:29:21;53.40;;;25.97;;
59474;SDS011;45288;51.136;16.928;2023-02-28T00:31:46;49.22;;;26.05;;
59474;SDS011;45288;51.136;16.928;2023-02-28T00:34:12;50.83;;;24.53;;
59474;SDS011;45288;51.136;16.928;2023-02-28T00:36:38;46.25;;;23.77;;
59474;SDS011;45288;51.136;16.928;2023-02-28T00:39:04;46.90;;;23.13;;
59474;SDS011;45288;51.136;16.928;2023-02-28T00:41:29;49.90;;;24.02;;
59474;SDS011;45288;51.136;16.928;2023-02-28T00:43:55;51.23;;;26.10;;
59474;SDS011;45288;51.136;16.928;2023-02-28T00:46:20;54.35;;;26.48;;
59474;SDS011;45288;51.136;16.928;2023-02-28T00:48:46;56.93;;;28.17;;
59474;SDS011;45288;51.136;16.928;2023-02-28T00:51:11;54.65;;;26.58;;
59474;SDS011;45288;51.136;16.928;2023-02-28T00:53:37;54.23;;;26.80;;
59474;SDS011;45288;51.136;16.928;2023-02-28T00:56:03;54.65;;;26.52;;
59474;SDS011;45288;51.136;16.928;2023-02-28T00:58:29;54.72;;;26.83;;
59474;SDS011;45288;51.136;16.928;2023-02-28T01:00:54;57.57;;;28.27;;
59474;SDS011;45288;51.136;16.928;2023-02-28T01:03:20;62.40;;;26.98;;
59474;SDS011;45288;51.136;16.928;2023-02-28T01:05:46;57.80;;;25.65;;
59474;SDS011;45288;51.136;16.928;2023-02-28T01:08:12;53.67;;;26.10;;
59474;SDS011;45288;51.136;16.928;2023-02-28T01:10:39;58.72;;;27.83;;
59474;SDS011;45288;51.136;16.928;2023-02-28T01:13:06;58.80;;;27.33;;
59474;SDS011;45288;51.136;16.928;2023-02-28T01:15:31;62.87;;;27.10;;
59474;SDS011;45288;51.136;16.928;2023-02-28T01:17:58;51.80;;;24.63;;
59474;SDS011;45288;51.136;16.928;2023-02-28T01:20:24;51.93;;;24.20;;
59474;SDS011;45288;51.136;16.928;2023-02-28T01:22:49;51.07;;;23.67;;
59474;SDS011;45288;51.136;16.928;2023-02-28T01:25:15;48.65;;;22.45;;
59474;SDS011;45288;51.136;16.928;2023-02-28T01:27:40;51.03;;;22.83;;
59474;SDS011;45288;51.136;16.928;2023-02-28T01:30:07;50.10;;;23.75;;
59474;SDS011;45288;51.136;16.928;2023-02-28T01:32:34;56.10;;;25.00;;
59474;SDS011;45288;51.136;16.928;2023-02-28T01:35:00;46.53;;;23.75;;
59474;SDS011;45288;51.136;16.928;2023-02-28T01:37:26;51.63;;;24.00;;
59474;SDS011;45288;51.136;16.928;2023-02-28T01:39:52;45.40;;;22.58;;
59474;SDS011;45288;51.136;16.928;2023-02-28T01:42:19;54.65;;;25.88;;
59474;SDS011;45288;51.136;16.928;2023-02-28T01:44:57;57.08;;;26.38;;
59474;SDS011;45288;51.136;16.928;2023-02-28T01:47:24;52.70;;;25.60;;
59474;SDS011;45288;51.136;16.928;2023-02-28T01:49:51;49.25;;;24.52;;
59474;SDS011;45288;51.136;16.928;2023-02-28T01:52:17;51.22;;;25.13;;
59474;SDS011;45288;51.136;16.928;2023-02-28T01:54:44;50.37;;;24.47;;
59474;SDS011;45288;51.136;16.928;2023-02-28T01:57:13;43.33;;;22.40;;
59474;SDS011;45288;51.136;16.928;2023-02-28T01:59:48;46.13;;;23.02;;
59474;SDS011;45288;51.136;16.928;2023-02-28T02:02:16;45.47;;;23.13;;
59474;SDS011;45288;51.136;16.928;2023-02-28T02:04:56;41.90;;;21.98;;
59474;SDS011;45288;51.136;16.928;2023-02-28T02:07:24;44.83;;;22.73;;
59474;SDS011;45288;51.136;16.928;2023-02-28T02:09:56;43.20;;;22.65;;
59474;SDS011;45288;51.136;16.928;2023-02-28T02:12:27;46.55;;;23.73;;
59474;SDS011;45288;51.136;16.928;2023-02-28T02:41:13;51.72;;;25.27;;
59474;SDS011;45288;51.136;16.928;2023-02-28T02:44:01;51.17;;;25.30;;
59474;SDS011;45288;51.136;16.928;2023-02-28T02:46:35;52.85;;;25.83;;
59474;SDS011;45288;51.136;16.928;2023-02-28T02:49:03;57.90;;;25.98;;
59474;SDS011;45288;51.136;16.928;2023-02-28T02:51:30;56.50;;;26.50;;
59474;SDS011;45288;51.136;16.928;2023-02-28T02:53:57;52.20;;;25.90;;
59474;SDS011;45288;51.136;16.928;2023-02-28T02:56:25;53.28;;;26.75;;
59474;SDS011;45288;51.136;16.928;2023-02-28T02:58:52;56.00;;;27.80;;
59474;SDS011;45288;51.136;16.928;2023-02-28T03:01:21;55.97;;;27.27;;
59474;SDS011;45288;51.136;16.928;2023-02-28T03:03:56;52.63;;;26.45;;
59474;SDS011;45288;51.136;16.928;2023-02-28T03:06:22;56.85;;;27.08;;
59474;SDS011;45288;51.136;16.928;2023-02-28T03:08:48;53.60;;;26.73;;
59474;SDS011;45288;51.136;16.928;2023-02-28T03:11:15;57.75;;;26.42;;
59474;SDS011;45288;51.136;16.928;2023-02-28T03:14:04;52.30;;;26.67;;
59474;SDS011;45288;51.136;16.928;2023-02-28T03:26:52;50.80;;;25.27;;
59474;SDS011;45288;51.136;16.928;2023-02-28T03:29:53;46.03;;;23.77;;
59474;SDS011;45288;51.136;16.928;2023-02-28T03:34:41;51.30;;;26.10;;
59474;SDS011;45288;51.136;16.928;2023-02-28T03:37:09;52.17;;;26.17;;
59474;SDS011;45288;51.136;16.928;2023-02-28T03:39:38;50.63;;;25.85;;
59474;SDS011;45288;51.136;16.928;2023-02-28T03:42:07;52.95;;;26.00;;
59474;SDS011;45288;51.136;16.928;2023-02-28T03:47:01;50.30;;;24.87;;
59474;SDS011;45288;51.136;16.928;2023-02-28T03:49:32;53.63;;;26.20;;
59474;SDS011;45288;51.136;16.928;2023-02-28T03:52:00;53.60;;;26.52;;
59474;SDS011;45288;51.136;16.928;2023-02-28T03:54:44;51.60;;;25.42;;
59474;SDS011;45288;51.136;16.928;2023-02-28T03:57:12;55.03;;;25.92;;
59474;SDS011;45288;51.136;16.928;2023-02-28T03:59:44;53.03;;;25.55;;
59474;SDS011;45288;51.136;16.928;2023-02-28T04:02:11;56.00;;;27.85;;
59474;SDS011;45288;51.136;16.928;2023-02-28T04:04:36;51.67;;;26.70;;
59474;SDS011;45288;51.136;16.928;2023-02-28T04:07:11;55.10;;;25.85;;
59474;SDS011;45288;51.136;16.928;2023-02-28T04:09:37;55.67;;;25.33;;
59474;SDS011;45288;51.136;16.928;2023-02-28T04:12:02;53.97;;;25.75;;
59474;SDS011;45288;51.136;16.928;2023-02-28T04:14:28;54.75;;;26.10;;
59474;SDS011;45288;51.136;16.928;2023-02-28T04:16:54;56.97;;;25.47;;
59474;SDS011;45288;51.136;16.928;2023-02-28T04:19:19;55.50;;;25.27;;
59474;SDS011;45288;51.136;16.928;2023-02-28T04:21:46;50.75;;;23.90;;
59474;SDS011;45288;51.136;16.928;2023-02-28T04:24:16;52.53;;;23.25;;
59474;SDS011;45288;51.136;16.928;2023-02-28T04:26:43;45.43;;;22.60;;
59474;SDS011;45288;51.136;16.928;2023-02-28T04:29:09;45.58;;;22.55;;
59474;SDS011;45288;51.136;16.928;2023-02-28T04:31:35;50.35;;;24.02;;
59474;SDS011;45288;51.136;16.928;2023-02-28T04:34:00;50.90;;;25.45;;
59474;SDS011;45288;51.136;16.928;2023-02-28T04:36:26;52.93;;;25.37;;
59474;SDS011;45288;51.136;16.928;2023-02-28T04:38:52;49.97;;;24.37;;
59474;SDS011;45288;51.136;16.928;2023-02-28T04:41:18;47.70;;;23.85;;
59474;SDS011;45288;51.136;16.928;2023-02-28T04:43:43;57.20;;;26.58;;
59474;SDS011;45288;51.136;16.928;2023-02-28T04:46:09;51.63;;;25.43;;
59474;SDS011;45288;51.136;16.928;2023-02-28T04:48:36;51.08;;;24.60;;
59474;SDS011;45288;51.136;16.928;2023-02-28T04:51:09;46.85;;;22.98;;
59474;SDS011;45288;51.136;16.928;2023-02-28T04:53:35;49.78;;;24.30;;
59474;SDS011;45288;51.136;16.928;2023-02-28T04:56:01;48.25;;;23.40;;
59474;SDS011;45288;51.136;16.928;2023-02-28T04:58:27;55.20;;;24.58;;
59474;SDS011;45288;51.136;16.928;2023-02-28T05:00:53;49.35;;;23.13;;
59474;SDS011;45288;51.136;16.928;2023-02-28T05:03:19;51.60;;;23.88;;
59474;SDS011;45288;51.136;16.928;2023-02-28T05:05:46;49.15;;;24.17;;
59474;SDS011;45288;51.136;16.928;2023-02-28T05:08:11;49.50;;;23.80;;
59474;SDS011;45288;51.136;16.928;2023-02-28T05:10:37;51.45;;;23.95;;
59474;SDS011;45288;51.136;16.928;2023-02-28T05:13:03;50.92;;;24.40;;
59474;SDS011;45288;51.136;16.928;2023-02-28T05:15:28;54.87;;;25.53;;
59474;SDS011;45288;51.136;16.928;2023-02-28T05:17:54;48.80;;;23.90;;
59474;SDS011;45288;51.136;16.928;2023-02-28T05:20:19;50.13;;;24.10;;
59474;SDS011;45288;51.136;16.928;2023-02-28T05:22:46;50.78;;;24.15;;
59474;SDS011;45288;51.136;16.928;2023-02-28T05:25:13;48.70;;;23.15;;
59474;SDS011;45288;51.136;16.928;2023-02-28T05:27:40;53.20;;;23.40;;
59474;SDS011;45288;51.136;16.928;2023-02-28T05:30:06;48.53;;;23.90;;
59474;SDS011;45288;51.136;16.928;2023-02-28T05:32:32;51.93;;;24.20;;
59474;SDS011;45288;51.136;16.928;2023-02-28T05:34:57;47.87;;;23.33;;
59474;SDS011;45288;51.136;16.928;2023-02-28T05:37:23;51.97;;;23.97;;
59474;SDS011;45288;51.136;16.928;2023-02-28T05:39:48;48.67;;;23.85;;
59474;SDS011;45288;51.136;16.928;2023-02-28T05:42:14;52.50;;;23.20;;
59474;SDS011;45288;51.136;16.928;2023-02-28T05:44:40;57.60;;;24.60;;
59474;SDS011;45288;51.136;16.928;2023-02-28T05:47:05;48.78;;;23.33;;
59474;SDS011;45288;51.136;16.928;2023-02-28T05:49:31;47.30;;;23.93;;
59474;SDS011;45288;51.136;16.928;2023-02-28T05:51:57;44.97;;;23.08;;
59474;SDS011;45288;51.136;16.928;2023-02-28T05:54:22;48.65;;;24.30;;
59474;SDS011;45288;51.136;16.928;2023-02-28T05:56:48;51.30;;;24.50;;
59474;SDS011;45288;51.136;16.928;2023-02-28T05:59:13;49.67;;;23.73;;
59474;SDS011;45288;51.136;16.928;2023-02-28T06:01:40;53.13;;;23.47;;
59474;SDS011;45288;51.136;16.928;2023-02-28T06:04:07;45.38;;;22.95;;
59474;SDS011;45288;51.136;16.928;2023-02-28T06:06:33;48.20;;;22.50;;
59474;SDS011;45288;51.136;16.928;2023-02-28T06:09:05;48.67;;;23.52;;
59474;SDS011;45288;51.136;16.928;2023-02-28T06:11:31;45.92;;;22.75;;
59474;SDS011;45288;51.136;16.928;2023-02-28T06:13:57;45.53;;;22.27;;
59474;SDS011;45288;51.136;16.928;2023-02-28T06:16:25;47.28;;;23.40;;
59474;SDS011;45288;51.136;16.928;2023-02-28T06:18:50;51.38;;;24.38;;
59474;SDS011;45288;51.136;16.928;2023-02-28T06:21:18;50.13;;;24.10;;
59474;SDS011;45288;51.136;16.928;2023-02-28T06:23:44;54.97;;;24.80;;
59474;SDS011;45288;51.136;16.928;2023-02-28T06:26:10;48.97;;;25.17;;
59474;SDS011;45288;51.136;16.928;2023-02-28T06:28:36;51.40;;;25.35;;
59474;SDS011;45288;51.136;16.928;2023-02-28T06:31:20;51.60;;;24.00;;
59474;SDS011;45288;51.136;16.928;2023-02-28T06:33:46;52.22;;;24.55;;
59474;SDS011;45288;51.136;16.928;2023-02-28T06:36:13;55.80;;;27.42;;
59474;SDS011;45288;51.136;16.928;2023-02-28T06:38:39;58.72;;;27.35;;
59474;SDS011;45288;51.136;16.928;2023-02-28T06:41:05;53.72;;;25.40;;
59474;SDS011;45288;51.136;16.928;2023-02-28T06:43:32;54.45;;;25.33;;
59474;SDS011;45288;51.136;16.928;2023-02-28T06:45:59;51.00;;;25.08;;
59474;SDS011;45288;51.136;16.928;2023-02-28T06:48:26;49.50;;;24.45;;
59474;SDS011;45288;51.136;16.928;2023-02-28T06:50:51;49.95;;;23.98;;
59474;SDS011;45288;51.136;16.928;2023-02-28T06:53:26;47.45;;;22.75;;
59474;SDS011;45288;51.136;16.928;2023-02-28T06:55:52;46.25;;;21.98;;
59474;SDS011;45288;51.136;16.928;2023-02-28T06:58:18;41.77;;;21.03;;
59474;SDS011;45288;51.136;16.928;2023-02-28T07:00:44;42.90;;;21.55;;
59474;SDS011;45288;51.136;16.928;2023-02-28T07:03:10;43.42;;;21.92;;
59474;SDS011;45288;51.136;16.928;2023-02-28T07:05:37;47.42;;;22.25;;
59474;SDS011;45288;51.136;16.928;2023-02-28T07:08:03;43.00;;;20.98;;
59474;SDS011;45288;51.136;16.928;2023-02-28T07:10:29;41.40;;;20.95;;
59474;SDS011;45288;51.136;16.928;2023-02-28T07:12:55;41.27;;;21.27;;
59474;SDS011;45288;51.136;16.928;2023-02-28T07:15:21;44.37;;;20.70;;
59474;SDS011;45288;51.136;16.928;2023-02-28T07:17:46;40.83;;;19.90;;
59474;SDS011;45288;51.136;16.928;2023-02-28T07:20:12;37.63;;;18.47;;
59474;SDS011;45288;51.136;16.928;2023-02-28T07:22:38;37.45;;;19.08;;
59474;SDS011;45288;51.136;16.928;2023-02-28T07:25:04;31.88;;;17.67;;
59474;SDS011;45288;51.136;16.928;2023-02-28T07:27:30;35.67;;;18.20;;
59474;SDS011;45288;51.136;16.928;2023-02-28T07:29:56;29.58;;;17.17;;
59474;SDS011;45288;51.136;16.928;2023-02-28T07:32:21;34.97;;;17.10;;
59474;SDS011;45288;51.136;16.928;2023-02-28T07:34:47;35.95;;;17.90;;
59474;SDS011;45288;51.136;16.928;2023-02-28T07:37:13;34.92;;;18.10;;
59474;SDS011;45288;51.136;16.928;2023-02-28T07:39:39;32.97;;;17.90;;
59474;SDS011;45288;51.136;16.928;2023-02-28T07:42:07;32.03;;;16.30;;
59474;SDS011;45288;51.136;16.928;2023-02-28T07:44:35;32.67;;;17.08;;
59474;SDS011;45288;51.136;16.928;2023-02-28T07:47:08;39.15;;;17.80;;
59474;SDS011;45288;51.136;16.928;2023-02-28T07:49:35;28.90;;;16.27;;
59474;SDS011;45288;51.136;16.928;2023-02-28T07:52:01;31.73;;;16.07;;
59474;SDS011;45288;51.136;16.928;2023-02-28T07:54:27;27.20;;;15.18;;
59474;SDS011;45288;51.136;16.928;2023-02-28T07:56:52;30.60;;;15.80;;
59474;SDS011;45288;51.136;16.928;2023-02-28T07:59:18;25.25;;;14.55;;
59474;SDS011;45288;51.136;16.928;2023-02-28T08:01:44;27.00;;;13.80;;
59474;SDS011;45288;51.136;16.928;2023-02-28T08:04:09;22.40;;;12.88;;
59474;SDS011;45288;51.136;16.928;2023-02-28T08:06:35;22.58;;;12.70;;
59474;SDS011;45288;51.136;16.928;2023-02-28T08:09:01;24.80;;;13.30;;
59474;SDS011;45288;51.136;16.928;2023-02-28T08:11:27;24.70;;;13.55;;
59474;SDS011;45288;51.136;16.928;2023-02-28T08:13:52;24.80;;;13.97;;
59474;SDS011;45288;51.136;16.928;2023-02-28T08:16:19;29.90;;;13.90;;
59474;SDS011;45288;51.136;16.928;2023-02-28T08:18:56;29.75;;;14.48;;
59474;SDS011;45288;51.136;16.928;2023-02-28T08:21:22;27.57;;;13.97;;
59474;SDS011;45288;51.136;16.928;2023-02-28T08:23:48;28.00;;;13.48;;
59474;SDS011;45288;51.136;16.928;2023-02-28T08:26:15;22.65;;;12.63;;
59474;SDS011;45288;51.136;16.928;2023-02-28T08:28:41;25.83;;;13.30;;
59474;SDS011;45288;51.136;16.928;2023-02-28T08:31:07;24.83;;;13.40;;
59474;SDS011;45288;51.136;16.928;2023-02-28T08:33:33;26.02;;;13.77;;
59474;SDS011;45288;51.136;16.928;2023-02-28T08:35:59;22.50;;;12.60;;
59474;SDS011;45288;51.136;16.928;2023-02-28T08:38:24;20.93;;;12.17;;
59474;SDS011;45288;51.136;16.928;2023-02-28T08:40:50;24.92;;;12.90;;
59474;SDS011;45288;51.136;16.928;2023-02-28T08:43:15;23.93;;;12.77;;
59474;SDS011;45288;51.136;16.928;2023-02-28T08:45:41;20.77;;;12.20;;
59474;SDS011;45288;51.136;16.928;2023-02-28T08:48:07;20.43;;;11.10;;
59474;SDS011;45288;51.136;16.928;2023-02-28T08:50:32;20.20;;;11.20;;
59474;SDS011;45288;51.136;16.928;2023-02-28T08:52:58;20.23;;;10.70;;
59474;SDS011;45288;51.136;16.928;2023-02-28T08:55:25;17.23;;;8.60;;
59474;SDS011;45288;51.136;16.928;2023-02-28T08:57:50;16.90;;;8.10;;
59474;SDS011;45288;51.136;16.928;2023-02-28T09:00:16;17.40;;;8.40;;
59474;SDS011;45288;51.136;16.928;2023-02-28T09:02:41;17.65;;;8.00;;
59474;SDS011;45288;51.136;16.928;2023-02-28T09:05:09;19.00;;;8.80;;
59474;SDS011;45288;51.136;16.928;2023-02-28T09:07:34;17.00;;;8.60;;
59474;SDS011;45288;51.136;16.928;2023-02-28T09:10:00;16.17;;;8.43;;
59474;SDS011;45288;51.136;16.928;2023-02-28T09:12:26;19.63;;;9.70;;
59474;SDS011;45288;51.136;16.928;2023-02-28T09:14:52;17.73;;;9.30;;
59474;SDS011;45288;51.136;16.928;2023-02-28T09:17:18;18.35;;;9.20;;
59474;SDS011;45288;51.136;16.928;2023-02-28T09:19:44;17.85;;;9.10;;
59474;SDS011;45288;51.136;16.928;2023-02-28T09:22:10;18.23;;;8.70;;
59474;SDS011;45288;51.136;16.928;2023-02-28T09:24:36;17.02;;;8.85;;
59474;SDS011;45288;51.136;16.928;2023-02-28T09:27:02;17.42;;;8.68;;
59474;SDS011;45288;51.136;16.928;2023-02-28T09:29:28;17.23;;;8.32;;
59474;SDS011;45288;51.136;16.928;2023-02-28T09:31:53;17.17;;;8.10;;
59474;SDS011;45288;51.136;16.928;2023-02-28T09:34:19;17.40;;;8.05;;
59474;SDS011;45288;51.136;16.928;2023-02-28T09:36:45;16.57;;;8.00;;
59474;SDS011;45288;51.136;16.928;2023-02-28T09:39:10;18.50;;;8.60;;
59474;SDS011;45288;51.136;16.928;2023-02-28T09:41:47;16.17;;;8.23;;
59474;SDS011;45288;51.136;16.928;2023-02-28T09:44:17;18.02;;;8.05;;
59474;SDS011;45288;51.136;16.928;2023-02-28T09:46:47;18.73;;;8.75;;
59474;SDS011;45288;51.136;16.928;2023-02-28T09:49:17;17.15;;;8.35;;
59474;SDS011;45288;51.136;16.928;2023-02-28T09:54:20;18.33;;;8.70;;
59474;SDS011;45288;51.136;16.928;2023-02-28T09:56:51;17.27;;;8.25;;
59474;SDS011;45288;51.136;16.928;2023-02-28T10:02:13;17.48;;;8.63;;
59474;SDS011;45288;51.136;16.928;2023-02-28T10:07:52;19.00;;;9.10;;
59474;SDS011;45288;51.136;16.928;2023-02-28T10:09:57;22.98;;;9.48;;
59474;SDS011;45288;51.136;16.928;2023-02-28T10:12:24;20.05;;;8.75;;
59474;SDS011;45288;51.136;16.928;2023-02-28T10:14:50;22.92;;;9.45;;
59474;SDS011;45288;51.136;16.928;2023-02-28T10:17:21;20.75;;;9.57;;
59474;SDS011;45288;51.136;16.928;2023-02-28T10:24:45;21.42;;;9.38;;
59474;SDS011;45288;51.136;16.928;2023-02-28T10:29:42;20.77;;;9.17;;
59474;SDS011;45288;51.136;16.928;2023-02-28T10:32:08;19.00;;;9.13;;
59474;SDS011;45288;51.136;16.928;2023-02-28T10:34:35;21.08;;;10.05;;
59474;SDS011;45288;51.136;16.928;2023-02-28T10:37:00;20.70;;;9.70;;
59474;SDS011;45288;51.136;16.928;2023-02-28T10:42:05;18.92;;;9.02;;
59474;SDS011;45288;51.136;16.928;2023-02-28T10:44:41;18.23;;;8.93;;
59474;SDS011;45288;51.136;16.928;2023-02-28T10:47:12;18.30;;;9.23;;
59474;SDS011;45288;51.136;16.928;2023-02-28T10:49:38;19.15;;;9.55;;
59474;SDS011;45288;51.136;16.928;2023-02-28T10:52:11;18.77;;;9.85;;
59474;SDS011;45288;51.136;16.928;2023-02-28T10:54:37;20.73;;;10.02;;
59474;SDS011;45288;51.136;16.928;2023-02-28T10:57:07;19.10;;;9.60;;
59474;SDS011;45288;51.136;16.928;2023-02-28T10:59:34;20.90;;;10.70;;
59474;SDS011;45288;51.136;16.928;2023-02-28T11:02:00;19.33;;;9.68;;
59474;SDS011;45288;51.136;16.928;2023-02-28T11:07:02;19.67;;;10.25;;
59474;SDS011;45288;51.136;16.928;2023-02-28T11:09:28;21.17;;;10.43;;
59474;SDS011;45288;51.136;16.928;2023-02-28T11:11:55;20.27;;;10.10;;
59474;SDS011;45288;51.136;16.928;2023-02-28T11:14:28;21.08;;;10.45;;
59474;SDS011;45288;51.136;16.928;2023-02-28T11:16:55;20.88;;;10.40;;
59474;SDS011;45288;51.136;16.928;2023-02-28T11:19:24;20.15;;;10.43;;
59474;SDS011;45288;51.136;16.928;2023-02-28T11:21:57;17.52;;;9.65;;
59474;SDS011;45288;51.136;16.928;2023-02-28T11:24:26;17.90;;;9.50;;
59474;SDS011;45288;51.136;16.928;2023-02-28T11:26:52;19.02;;;9.52;;
59474;SDS011;45288;51.136;16.928;2023-02-28T11:29:22;16.92;;;9.18;;
59474;SDS011;45288;51.136;16.928;2023-02-28T11:34:37;19.42;;;10.10;;
59474;SDS011;45288;51.136;16.928;2023-02-28T11:37:03;20.83;;;9.73;;
59474;SDS011;45288;51.136;16.928;2023-02-28T11:39:31;17.75;;;9.18;;
59474;SDS011;45288;51.136;16.928;2023-02-28T11:57:49;18.05;;;9.50;;
59474;SDS011;45288;51.136;16.928;2023-02-28T12:05:40;18.80;;;10.00;;
59474;SDS011;45288;51.136;16.928;2023-02-28T12:08:23;20.13;;;9.75;;
59474;SDS011;45288;51.136;16.928;2023-02-28T12:13:29;18.80;;;10.00;;
59474;SDS011;45288;51.136;16.928;2023-02-28T12:18:47;19.55;;;9.98;;
59474;SDS011;45288;51.136;16.928;2023-02-28T12:23:47;20.98;;;10.73;;
59474;SDS011;45288;51.136;16.928;2023-02-28T12:26:37;20.23;;;10.35;;
59474;SDS011;45288;51.136;16.928;2023-02-28T12:29:09;20.33;;;10.52;;
59474;SDS011;45288;51.136;16.928;2023-02-28T12:31:35;23.47;;;11.33;;
59474;SDS011;45288;51.136;16.928;2023-02-28T12:34:04;23.25;;;11.40;;
59474;SDS011;45288;51.136;16.928;2023-02-28T12:36:31;20.90;;;10.98;;
59474;SDS011;45288;51.136;16.928;2023-02-28T12:39:04;22.90;;;11.73;;
59474;SDS011;45288;51.136;16.928;2023-02-28T12:41:39;25.50;;;11.45;;
59474;SDS011;45288;51.136;16.928;2023-02-28T12:44:14;22.10;;;11.50;;
59474;SDS011;45288;51.136;16.928;2023-02-28T12:46:44;25.65;;;11.68;;
59474;SDS011;45288;51.136;16.928;2023-02-28T12:49:17;23.73;;;11.52;;
59474;SDS011;45288;51.136;16.928;2023-02-28T12:51:44;24.08;;;11.55;;
59474;SDS011;45288;51.136;16.928;2023-02-28T12:54:23;25.67;;;11.27;;
59474;SDS011;45288;51.136;16.928;2023-02-28T12:57:00;23.58;;;11.60;;
59474;SDS011;45288;51.136;16.928;2023-02-28T12:59:37;21.97;;;11.60;;
59474;SDS011;45288;51.136;16.928;2023-02-28T13:09:51;24.00;;;11.70;;
59474;SDS011;45288;51.136;16.928;2023-02-28T13:12:17;20.48;;;11.02;;
59474;SDS011;45288;51.136;16.928;2023-02-28T13:14:42;22.02;;;11.57;;
59474;SDS011;45288;51.136;16.928;2023-02-28T13:19:44;20.85;;;11.18;;
59474;SDS011;45288;51.136;16.928;2023-02-28T13:22:18;23.48;;;11.20;;
59474;SDS011;45288;51.136;16.928;2023-02-28T13:24:45;23.27;;;11.57;;
59474;SDS011;45288;51.136;16.928;2023-02-28T13:29:41;26.98;;;12.10;;
59474;SDS011;45288;51.136;16.928;2023-02-28T13:34:34;23.13;;;11.20;;
59474;SDS011;45288;51.136;16.928;2023-02-28T13:39:45;22.42;;;11.30;;
59474;SDS011;45288;51.136;16.928;2023-02-28T13:50:27;19.98;;;10.45;;
59474;SDS011;45288;51.136;16.928;2023-02-28T13:55:23;21.77;;;11.07;;
59474;SDS011;45288;51.136;16.928;2023-02-28T13:58:10;20.73;;;10.18;;
59474;SDS011;45288;51.136;16.928;2023-02-28T14:00:44;20.48;;;9.93;;
59474;SDS011;45288;51.136;16.928;2023-02-28T14:05:44;20.98;;;9.85;;
59474;SDS011;45288;51.136;16.928;2023-02-28T14:10:41;22.10;;;10.68;;
59474;SDS011;45288;51.136;16.928;2023-02-28T14:13:42;21.15;;;10.23;;
59474;SDS011;45288;51.136;16.928;2023-02-28T14:16:00;21.55;;;10.60;;
59474;SDS011;45288;51.136;16.928;2023-02-28T14:20:55;21.97;;;10.43;;
59474;SDS011;45288;51.136;16.928;2023-02-28T14:25:57;21.40;;;10.87;;
59474;SDS011;45288;51.136;16.928;2023-02-28T14:31:24;19.70;;;10.60;;
59474;SDS011;45288;51.136;16.928;2023-02-28T14:39:20;28.45;;;12.48;;
59474;SDS011;45288;51.136;16.928;2023-02-28T14:41:47;26.17;;;11.63;;
59474;SDS011;45288;51.136;16.928;2023-02-28T14:46:42;25.65;;;12.23;;
59474;SDS011;45288;51.136;16.928;2023-02-28T14:49:27;24.25;;;11.88;;
59474;SDS011;45288;51.136;16.928;2023-02-28T14:52:27;22.65;;;10.95;;
59474;SDS011;45288;51.136;16.928;2023-02-28T14:54:45;24.00;;;11.90;;
59474;SDS011;45288;51.136;16.928;2023-02-28T14:57:25;23.60;;;11.40;;
59474;SDS011;45288;51.136;16.928;2023-02-28T15:00:01;23.63;;;11.73;;
59474;SDS011;45288;51.136;16.928;2023-02-28T15:02:30;22.42;;;11.23;;
59474;SDS011;45288;51.136;16.928;2023-02-28T15:04:57;25.40;;;12.13;;
59474;SDS011;45288;51.136;16.928;2023-02-28T15:07:24;21.57;;;11.30;;
59474;SDS011;45288;51.136;16.928;2023-02-28T15:10:06;22.35;;;10.95;;
59474;SDS011;45288;51.136;16.928;2023-02-28T15:12:32;21.10;;;11.23;;
59474;SDS011;45288;51.136;16.928;2023-02-28T15:14:58;20.87;;;11.13;;
59474;SDS011;45288;51.136;16.928;2023-02-28T15:17:23;22.88;;;12.00;;
59474;SDS011;45288;51.136;16.928;2023-02-28T15:19:50;23.15;;;11.63;;
59474;SDS011;45288;51.136;16.928;2023-02-28T15:22:18;26.80;;;12.47;;
59474;SDS011;45288;51.136;16.928;2023-02-28T15:24:46;23.48;;;11.63;;
59474;SDS011;45288;51.136;16.928;2023-02-28T15:27:20;22.60;;;11.23;;
59474;SDS011;45288;51.136;16.928;2023-02-28T15:29:51;24.20;;;11.65;;
59474;SDS011;45288;51.136;16.928;2023-02-28T15:34:50;24.40;;;11.45;;
59474;SDS011;45288;51.136;16.928;2023-02-28T15:40:44;22.98;;;11.30;;
59474;SDS011;45288;51.136;16.928;2023-02-28T15:45:34;19.80;;;10.52;;
59474;SDS011;45288;51.136;16.928;2023-02-28T15:48:25;22.15;;;11.35;;
59474;SDS011;45288;51.136;16.928;2023-02-28T15:50:51;23.73;;;11.32;;
59474;SDS011;45288;51.136;16.928;2023-02-28T15:53:17;18.67;;;9.95;;
59474;SDS011;45288;51.136;16.928;2023-02-28T15:55:44;20.63;;;10.03;;
59474;SDS011;45288;51.136;16.928;2023-02-28T15:58:11;22.65;;;10.88;;
59474;SDS011;45288;51.136;16.928;2023-02-28T16:00:38;22.73;;;11.15;;
59474;SDS011;45288;51.136;16.928;2023-02-28T16:03:26;25.23;;;12.05;;
59474;SDS011;45288;51.136;16.928;2023-02-28T16:08:40;23.63;;;11.40;;
59474;SDS011;45288;51.136;16.928;2023-02-28T16:11:07;24.20;;;11.75;;
59474;SDS011;45288;51.136;16.928;2023-02-28T16:13:33;20.88;;;10.52;;
59474;SDS011;45288;51.136;16.928;2023-02-28T16:15:59;22.77;;;10.18;;
59474;SDS011;45288;51.136;16.928;2023-02-28T16:18:26;22.33;;;11.13;;
59474;SDS011;45288;51.136;16.928;2023-02-28T16:20:52;23.23;;;11.05;;
59474;SDS011;45288;51.136;16.928;2023-02-28T16:23:18;25.17;;;11.73;;
59474;SDS011;45288;51.136;16.928;2023-02-28T16:25:43;24.07;;;12.30;;
59474;SDS011;45288;51.136;16.928;2023-02-28T16:28:22;22.93;;;11.63;;
59474;SDS011;45288;51.136;16.928;2023-02-28T16:30:52;30.67;;;13.17;;
59474;SDS011;45288;51.136;16.928;2023-02-28T16:33:18;29.52;;;13.70;;
59474;SDS011;45288;51.136;16.928;2023-02-28T16:35:43;25.35;;;12.93;;
59474;SDS011;45288;51.136;16.928;2023-02-28T16:38:09;27.63;;;13.07;;
59474;SDS011;45288;51.136;16.928;2023-02-28T16:40:35;26.60;;;13.48;;
59474;SDS011;45288;51.136;16.928;2023-02-28T16:43:03;27.88;;;13.77;;
59474;SDS011;45288;51.136;16.928;2023-02-28T16:45:30;28.35;;;13.70;;
59474;SDS011;45288;51.136;16.928;2023-02-28T16:47:56;26.02;;;13.30;;
59474;SDS011;45288;51.136;16.928;2023-02-28T16:50:26;24.60;;;13.07;;